Parcialmente nublado
Limpio, sin nubes
Limpio, sin nubes
Limpio, sin nubes
Limpio, sin nubes
Limpio, sin nubes
Limpio, sin nubes
(°C)
15°
15°
14°
14°
14°
14°
13°
13°
13°
13°
12°
12°
11°
11°
(°C)
14°
14°
13°
12°
11°
11°
10°
SSO
SSO
SO
O
NO
NNO
NO
(km/h)
1-27
1-22
1-17
1-15
1-13
1-9
1-9
(mm)
0
0
0
0
0
0
0
(%)
0
0
0
0
0
0
0

Elevación del sol

/ 8.7°
sun-icon
UV 3
07:26
18:41
Gibosa menguante (223°)
22:40
09:05

METAR a Barcelona (LEBL)

Hora Condiciones Temperatura/
Punto de condensación
Viento Visibilidad Tiempo Nubes Presión Cambiar Bruto
VFR 14°C / 4°C 210º 9kt 9700m - Few Clouds 5000ft 1015 No Significant change LEBL 281600Z 21009KT 9999 FEW050 14/04 Q1015 NOSIG
VFR 14°C / 5°C 210º variable 170º to 230º 9kt 9700m - Few Clouds 5000ft 1015 No Significant change LEBL 281530Z 21009KT 170V230 9999 FEW050 14/05 Q1015 NOSIG
VFR 14°C / 5°C 200º 10kt 9700m - Few Clouds 5000ft 1015 No Significant change LEBL 281500Z 20010KT 9999 FEW050 14/05 Q1015 NOSIG
VFR 14°C / 2°C 200º 11kt 9700m - Few Clouds 5000ft 1015 No Significant change LEBL 281430Z 20011KT 9999 FEW050 14/02 Q1015 NOSIG
VFR 15°C / 1°C 190º 12kt 9700m - Few Clouds 5000ft 1015 No Significant change LEBL 281400Z 19012KT 9999 FEW050 15/01 Q1015 NOSIG
VFR 15°C / 3°C 200º 11kt 9700m - Few Clouds 5000ft 1015 No Significant change LEBL 281330Z 20011KT 9999 FEW050 15/03 Q1015 NOSIG
VFR 15°C / 2°C 220º 8kt 9700m - Few Clouds 5000ft 1015 No Significant change LEBL 281300Z 22008KT 9999 FEW050 15/02 Q1015 NOSIG
VFR 15°C / 1°C 280º variable 220º to 320º 7kt 9700m - Few Clouds 5000ft 1015 No Significant change LEBL 281230Z 28007KT 220V320 9999 FEW050 15/01 Q1015 NOSIG
VFR 15°C / 1°C 300º variable 250º to 330º 8kt 9700m - Few Clouds 5000ft 1016 No Significant change LEBL 281200Z 30008KT 250V330 9999 FEW050 15/01 Q1016 NOSIG
VFR 13°C / -1°C 300º variable 210º to 340º 6kt 9700m - Few Clouds 4000ft 1016 No Significant change LEBL 281130Z 30006KT 210V340 9999 FEW040 13/M01 Q1016 NOSIG
VFR 13°C / -1°C 320º variable 290º to 350º 6kt 9700m - Few Clouds 4000ft 1016 No Significant change LEBL 281100Z 32006KT 290V350 9999 FEW040 13/M01 Q1016 NOSIG
VFR 13°C / -1°C 330º variable 280º to 040º 7kt Gust 17kt 9700m - Few Clouds 4000ft 1016 No Significant change LEBL 281030Z 33007G17KT 280V040 9999 FEW040 13/M01 Q1016 NOSIG
VFR 12°C / 0°C 310º variable 270º to 330º 11kt 9700m - Few Clouds 4000ft 1015 No Significant change LEBL 281000Z 31011KT 270V330 9999 FEW040 12/M00 Q1015 NOSIG
VFR 11°C / -1°C 310º variable 290º to 350º 8kt 9700m - Few Clouds 4000ft 1015 No Significant change LEBL 280930Z 31008KT 290V350 9999 FEW040 11/M01 Q1015 NOSIG
VFR 11°C / -1°C 340º variable 320º to 040º 9kt Gust 21kt 9700m - Few Clouds 4000ft 1015 No Significant change LEBL 280900Z 34009G21KT 320V040 9999 FEW040 11/M01 Q1015 NOSIG
VFR 11°C / -1°C 330º variable 280º to 010º 9kt 9700m - Few Clouds 3500ft 1015 No Significant change LEBL 280830Z 33009KT 280V010 9999 FEW035 11/M01 Q1015 NOSIG
VFR 11°C / -1°C 320º variable 290º to 350º 10kt 9700m - Few Clouds 3000ft 1014 No Significant change LEBL 280800Z 32010KT 290V350 9999 FEW030 11/M01 Q1014 NOSIG
VFR 11°C / -1°C 310º variable 280º to 010º 10kt Gust 24kt 9700m - Few Clouds 4000ft 1014 No Significant change LEBL 280730Z 31010G24KT 280V010 9999 FEW040 11/M01 Q1014 NOSIG
VFR 11°C / -2°C 310º variable 260º to 350º 8kt 9700m - Few Clouds 4000ft 1014 No Significant change LEBL 280700Z 31008KT 260V350 9999 FEW040 11/M02 Q1014 NOSIG
VFR 10°C / -1°C 300º variable 250º to 340º 7kt Gust 17kt 9700m - Few Clouds 3500ft 1013 No Significant change LEBL 280630Z 30007G17KT 250V340 9999 FEW035 10/M01 Q1013 NOSIG
VFR 11°C / -2°C 300º variable 260º to 340º 7kt 9700m - Few Clouds 3500ft 1013 No Significant change LEBL 280600Z 30007KT 260V340 9999 FEW035 11/M02 Q1013 NOSIG
VFR 11°C / -1°C 290º variable 260º to 330º 7kt 9700m - Few Clouds 1000ft 1013 No Significant change LEBL 280530Z 29007KT 260V330 9999 FEW010 11/M01 Q1013 NOSIG
VFR 11°C / -1°C 310º 10kt 9700m - Few Clouds 1000ft 1013 No Significant change LEBL 280500Z 31010KT 9999 FEW010 11/M01 Q1013 NOSIG
VFR 10°C / -1°C 320º 10kt 9700m - Few Clouds 1000ft 1012 No Significant change LEBL 280430Z 32010KT 9999 FEW010 10/M01 Q1012 NOSIG

VFR

14°C / 4°C

[Más]
Viento 210º 9kt
Visibilidad 9700m
Tiempo -
Nubes Few Clouds 5000ft
Presión 1015
Cambiar No Significant change
Bruto LEBL 281600Z 21009KT 9999 FEW050 14/04 Q1015 NOSIG

VFR

14°C / 5°C

[Más]
Viento 210º variable 170º to 230º 9kt
Visibilidad 9700m
Tiempo -
Nubes Few Clouds 5000ft
Presión 1015
Cambiar No Significant change
Bruto LEBL 281530Z 21009KT 170V230 9999 FEW050 14/05 Q1015 NOSIG

VFR

14°C / 5°C

[Más]
Viento 200º 10kt
Visibilidad 9700m
Tiempo -
Nubes Few Clouds 5000ft
Presión 1015
Cambiar No Significant change
Bruto LEBL 281500Z 20010KT 9999 FEW050 14/05 Q1015 NOSIG

VFR

14°C / 2°C

[Más]
Viento 200º 11kt
Visibilidad 9700m
Tiempo -
Nubes Few Clouds 5000ft
Presión 1015
Cambiar No Significant change
Bruto LEBL 281430Z 20011KT 9999 FEW050 14/02 Q1015 NOSIG

VFR

15°C / 1°C

[Más]
Viento 190º 12kt
Visibilidad 9700m
Tiempo -
Nubes Few Clouds 5000ft
Presión 1015
Cambiar No Significant change
Bruto LEBL 281400Z 19012KT 9999 FEW050 15/01 Q1015 NOSIG

VFR

15°C / 3°C

[Más]
Viento 200º 11kt
Visibilidad 9700m
Tiempo -
Nubes Few Clouds 5000ft
Presión 1015
Cambiar No Significant change
Bruto LEBL 281330Z 20011KT 9999 FEW050 15/03 Q1015 NOSIG

VFR

15°C / 2°C

[Más]
Viento 220º 8kt
Visibilidad 9700m
Tiempo -
Nubes Few Clouds 5000ft
Presión 1015
Cambiar No Significant change
Bruto LEBL 281300Z 22008KT 9999 FEW050 15/02 Q1015 NOSIG

VFR

15°C / 1°C

[Más]
Viento 280º variable 220º to 320º 7kt
Visibilidad 9700m
Tiempo -
Nubes Few Clouds 5000ft
Presión 1015
Cambiar No Significant change
Bruto LEBL 281230Z 28007KT 220V320 9999 FEW050 15/01 Q1015 NOSIG

VFR

15°C / 1°C

[Más]
Viento 300º variable 250º to 330º 8kt
Visibilidad 9700m
Tiempo -
Nubes Few Clouds 5000ft
Presión 1016
Cambiar No Significant change
Bruto LEBL 281200Z 30008KT 250V330 9999 FEW050 15/01 Q1016 NOSIG

VFR

13°C / -1°C

[Más]
Viento 300º variable 210º to 340º 6kt
Visibilidad 9700m
Tiempo -
Nubes Few Clouds 4000ft
Presión 1016
Cambiar No Significant change
Bruto LEBL 281130Z 30006KT 210V340 9999 FEW040 13/M01 Q1016 NOSIG

VFR

13°C / -1°C

[Más]
Viento 320º variable 290º to 350º 6kt
Visibilidad 9700m
Tiempo -
Nubes Few Clouds 4000ft
Presión 1016
Cambiar No Significant change
Bruto LEBL 281100Z 32006KT 290V350 9999 FEW040 13/M01 Q1016 NOSIG

VFR

13°C / -1°C

[Más]
Viento 330º variable 280º to 040º 7kt Gust 17kt
Visibilidad 9700m
Tiempo -
Nubes Few Clouds 4000ft
Presión 1016
Cambiar No Significant change
Bruto LEBL 281030Z 33007G17KT 280V040 9999 FEW040 13/M01 Q1016 NOSIG

VFR

12°C / 0°C

[Más]
Viento 310º variable 270º to 330º 11kt
Visibilidad 9700m
Tiempo -
Nubes Few Clouds 4000ft
Presión 1015
Cambiar No Significant change
Bruto LEBL 281000Z 31011KT 270V330 9999 FEW040 12/M00 Q1015 NOSIG

VFR

11°C / -1°C

[Más]
Viento 310º variable 290º to 350º 8kt
Visibilidad 9700m
Tiempo -
Nubes Few Clouds 4000ft
Presión 1015
Cambiar No Significant change
Bruto LEBL 280930Z 31008KT 290V350 9999 FEW040 11/M01 Q1015 NOSIG

VFR

11°C / -1°C

[Más]
Viento 340º variable 320º to 040º 9kt Gust 21kt
Visibilidad 9700m
Tiempo -
Nubes Few Clouds 4000ft
Presión 1015
Cambiar No Significant change
Bruto LEBL 280900Z 34009G21KT 320V040 9999 FEW040 11/M01 Q1015 NOSIG

VFR

11°C / -1°C

[Más]
Viento 330º variable 280º to 010º 9kt
Visibilidad 9700m
Tiempo -
Nubes Few Clouds 3500ft
Presión 1015
Cambiar No Significant change
Bruto LEBL 280830Z 33009KT 280V010 9999 FEW035 11/M01 Q1015 NOSIG

VFR

11°C / -1°C

[Más]
Viento 320º variable 290º to 350º 10kt
Visibilidad 9700m
Tiempo -
Nubes Few Clouds 3000ft
Presión 1014
Cambiar No Significant change
Bruto LEBL 280800Z 32010KT 290V350 9999 FEW030 11/M01 Q1014 NOSIG

VFR

11°C / -1°C

[Más]
Viento 310º variable 280º to 010º 10kt Gust 24kt
Visibilidad 9700m
Tiempo -
Nubes Few Clouds 4000ft
Presión 1014
Cambiar No Significant change
Bruto LEBL 280730Z 31010G24KT 280V010 9999 FEW040 11/M01 Q1014 NOSIG

VFR

11°C / -2°C

[Más]
Viento 310º variable 260º to 350º 8kt
Visibilidad 9700m
Tiempo -
Nubes Few Clouds 4000ft
Presión 1014
Cambiar No Significant change
Bruto LEBL 280700Z 31008KT 260V350 9999 FEW040 11/M02 Q1014 NOSIG

VFR

10°C / -1°C

[Más]
Viento 300º variable 250º to 340º 7kt Gust 17kt
Visibilidad 9700m
Tiempo -
Nubes Few Clouds 3500ft
Presión 1013
Cambiar No Significant change
Bruto LEBL 280630Z 30007G17KT 250V340 9999 FEW035 10/M01 Q1013 NOSIG

VFR

11°C / -2°C

[Más]
Viento 300º variable 260º to 340º 7kt
Visibilidad 9700m
Tiempo -
Nubes Few Clouds 3500ft
Presión 1013
Cambiar No Significant change
Bruto LEBL 280600Z 30007KT 260V340 9999 FEW035 11/M02 Q1013 NOSIG

VFR

11°C / -1°C

[Más]
Viento 290º variable 260º to 330º 7kt
Visibilidad 9700m
Tiempo -
Nubes Few Clouds 1000ft
Presión 1013
Cambiar No Significant change
Bruto LEBL 280530Z 29007KT 260V330 9999 FEW010 11/M01 Q1013 NOSIG

VFR

11°C / -1°C

[Más]
Viento 310º 10kt
Visibilidad 9700m
Tiempo -
Nubes Few Clouds 1000ft
Presión 1013
Cambiar No Significant change
Bruto LEBL 280500Z 31010KT 9999 FEW010 11/M01 Q1013 NOSIG

VFR

10°C / -1°C

[Más]
Viento 320º 10kt
Visibilidad 9700m
Tiempo -
Nubes Few Clouds 1000ft
Presión 1012
Cambiar No Significant change
Bruto LEBL 280430Z 32010KT 9999 FEW010 10/M01 Q1012 NOSIG

TAF a Barcelona (LEBL)

From till


Maximum Temperature 18ºC on . Minimum Temperature 8ºC on .
From till Wind 330º 9kt. Visibility 9700m. Scattered Clouds 5000ft.
Becoming from till
Becoming from till
Becoming from till
Becoming from till

Bruto: TAF LEBL 281100Z 2812/2912 33009KT 9999 SCT050 TX18/2812Z TN08/2906Z BECMG 2812/2814 20004KT BECMG 2817/2819 25004KT BECMG 2820/2822 33011KT BECMG 2909/2911 20010KT

Radar y precipitación nowcast para Barcelona

llovizna
Leve
Moderado
Fuerte
Muy fuerte
Granizo

El marcador del lugar se coloca en Barcelona. Esta animación muestra el radar de precipitación para el intervalo de tiempo seleccionado, así como una previsión de 2h. Las cruces naranjas indican rayos. Datos proporcionados por nowcast.de (disponibles en EE.UU., Europa y Australia). La llovizna o una ligera nevada pueden ser invisibles para el radar. La intensidad de la precipitación está codificada por colores, del turquesa al rojo.

Imágenes actuales de satélite y lluvia para Barcelona, España

El marcador del lugar se coloca en Barcelona. [Más]

La imagen de satélite en tiempo real se aprovecha de la combinación de bandas de la luz visible y de la luz infrarroja. Cómo se pueden detectar cambios de temperaturas a través de la banda infrarrojo, la imagen no aparece oscura de noche. No obstante, la niebla y las nubes bajas son apenas visibles en las imágenes de infrarrojo ya que las diferencias de temperaturas entre el suelo y la niebla son muy pequeñas, por eso, son casi invisibles durante la noche. Las imágenes de satélite del Meteosat (Europa) son actualizados en tiempo real cada 5 minutos. Las imágenes del GOES-16/GOES-17 (América del Norte y América del Sur) y Himawari (Asia) son actualizadas cada 10 minutos.

La precipitación se estima a partir del radar y de los satélites. Las estimaciones de la precipitación desde los satélites son menos precisas durante la noche que durante el día.

© 2024 meteoblue, NOAA Satellites GOES-16 and EUMETSAT. Datos de relámpagos proporcionados por nowcast.

Volver al principio
×
Hola,
parece que está usando un bloqueador de anuncios.

La publicidad es esencial para mantener nuestro sitio web gratuito con detalle y precisión únicos.

Por favor, incluya www.meteoblue.com en la lista blanca de su bloqueador de anuncios o considere comprar uno de nuestros productos:

¿Ya hay subscripción?
Entonces, por favor, iniciar sesión.